createdAt,value
2023-02-24T00:00:00.619Z,4.1
2023-02-24T00:01:00.555Z,4.1
2023-02-24T00:02:00.573Z,4.1
2023-02-24T00:03:00.564Z,4.1
2023-02-24T00:04:00.594Z,4.1
2023-02-24T00:05:00.540Z,4
2023-02-24T00:06:00.540Z,4
2023-02-24T00:07:00.556Z,3.9
2023-02-24T00:08:00.550Z,3.9
2023-02-24T00:09:00.589Z,3.9
2023-02-24T00:10:00.572Z,3.9
2023-02-24T00:11:00.555Z,3.9
2023-02-24T00:12:00.577Z,3.9
2023-02-24T00:13:00.558Z,3.9
2023-02-24T00:14:00.570Z,3.9
2023-02-24T00:15:00.552Z,3.9
2023-02-24T00:16:00.595Z,3.8
2023-02-24T00:17:00.599Z,3.8
2023-02-24T00:18:00.577Z,3.8
2023-02-24T00:19:00.575Z,3.8
2023-02-24T00:20:00.569Z,3.8
2023-02-24T00:21:00.545Z,3.8
2023-02-24T00:22:00.562Z,3.8
2023-02-24T00:23:00.599Z,3.8
2023-02-24T00:24:00.572Z,3.8
2023-02-24T00:25:00.580Z,3.7
2023-02-24T00:26:00.565Z,3.7
2023-02-24T00:27:00.559Z,3.7
2023-02-24T00:28:00.581Z,3.7
2023-02-24T00:29:00.583Z,3.7
2023-02-24T00:30:00.658Z,3.7
2023-02-24T00:31:00.652Z,3.8
2023-02-24T00:32:00.941Z,3.7
2023-02-24T00:33:01.653Z,3.8
2023-02-24T00:34:00.598Z,3.7
2023-02-24T00:35:00.603Z,3.8
2023-02-24T00:36:00.571Z,3.7
2023-02-24T00:37:00.593Z,3.8
2023-02-24T00:38:00.642Z,3.8
2023-02-24T00:39:00.607Z,3.7
2023-02-24T00:40:00.708Z,3.7
2023-02-24T00:41:00.590Z,3.6
2023-02-24T00:42:00.654Z,3.6
2023-02-24T00:43:00.607Z,3.6
2023-02-24T00:44:00.623Z,3.6
2023-02-24T00:45:00.630Z,3.5
2023-02-24T00:46:00.648Z,3.5
2023-02-24T00:47:00.590Z,3.5
2023-02-24T00:48:00.614Z,3.4
2023-02-24T00:49:00.610Z,3.5
2023-02-24T00:50:00.794Z,3.4
2023-02-24T00:51:00.599Z,3.4
2023-02-24T00:52:00.612Z,3.4
2023-02-24T00:53:00.629Z,3.4
2023-02-24T00:54:00.739Z,3.4
2023-02-24T00:55:00.665Z,3.4
2023-02-24T00:56:00.625Z,3.4
2023-02-24T00:57:00.612Z,3.4
2023-02-24T00:58:00.623Z,3.4
2023-02-24T00:59:00.621Z,3.4
2023-02-24T01:00:00.885Z,3.4
2023-02-24T01:01:00.607Z,3.4
2023-02-24T01:02:00.801Z,3.4
2023-02-24T01:03:00.632Z,3.4
2023-02-24T01:04:00.652Z,3.4
2023-02-24T01:05:00.700Z,3.4
2023-02-24T01:06:00.658Z,3.4
2023-02-24T01:07:00.798Z,3.4
2023-02-24T01:08:00.699Z,3.4
2023-02-24T01:09:00.694Z,3.4
2023-02-24T01:10:00.950Z,3.4
2023-02-24T01:11:00.817Z,3.4
2023-02-24T01:12:00.743Z,3.4
2023-02-24T01:13:00.620Z,3.4
2023-02-24T01:14:00.625Z,3.4
2023-02-24T01:15:00.731Z,3.4
2023-02-24T01:16:00.693Z,3.4
2023-02-24T01:17:00.633Z,3.4
2023-02-24T01:18:00.628Z,3.4
2023-02-24T01:19:00.686Z,3.5
2023-02-24T01:20:00.822Z,3.5
2023-02-24T01:21:00.636Z,3.6
2023-02-24T01:22:00.710Z,3.6
2023-02-24T01:23:00.655Z,3.6
2023-02-24T01:24:00.637Z,3.7
2023-02-24T01:25:00.749Z,3.8
2023-02-24T01:26:00.648Z,3.8
2023-02-24T01:27:00.756Z,3.8
2023-02-24T01:28:00.684Z,3.9
2023-02-24T01:29:00.904Z,3.9
2023-02-24T01:30:01.002Z,3.9
2023-02-24T01:31:01.011Z,4
2023-02-24T01:32:01.009Z,4
2023-02-24T01:33:01.069Z,4.1
2023-02-24T01:34:00.737Z,4.1
2023-02-24T01:35:00.866Z,4.1
2023-02-24T01:36:00.893Z,4.1
2023-02-24T01:37:00.867Z,4.2
2023-02-24T01:38:00.815Z,4.2
2023-02-24T01:39:00.674Z,4.2
2023-02-24T01:40:00.846Z,4.2
2023-02-24T01:41:00.768Z,4.2
2023-02-24T01:42:00.700Z,4.2
2023-02-24T01:43:00.812Z,4.3
2023-02-24T01:44:00.653Z,4.3
2023-02-24T01:45:00.878Z,4.3
2023-02-24T01:46:00.838Z,4.3
2023-02-24T01:47:00.692Z,4.3
2023-02-24T01:48:00.659Z,4.4
2023-02-24T01:49:00.664Z,4.4
2023-02-24T01:50:00.808Z,4.4
2023-02-24T01:51:00.684Z,4.4
2023-02-24T01:52:00.672Z,4.4
2023-02-24T01:53:00.694Z,4.4
2023-02-24T01:54:00.774Z,4.4
2023-02-24T01:55:00.700Z,4.4
2023-02-24T01:56:00.683Z,4.4
2023-02-24T01:57:00.673Z,4.4
2023-02-24T01:58:00.709Z,4.4
2023-02-24T01:59:00.687Z,4.4
2023-02-24T02:00:00.684Z,4.4
2023-02-24T02:01:00.720Z,4.4
2023-02-24T02:02:00.805Z,4.4
2023-02-24T02:03:00.764Z,4.4
2023-02-24T02:04:00.690Z,4.4
2023-02-24T02:05:00.708Z,4.4
2023-02-24T02:06:00.703Z,4.4
2023-02-24T02:07:00.677Z,4.4
2023-02-24T02:08:00.699Z,4.4
2023-02-24T02:09:00.707Z,4.4
2023-02-24T02:10:00.697Z,4.4
2023-02-24T02:11:00.716Z,4.4
2023-02-24T02:12:00.676Z,4.3
2023-02-24T02:13:00.677Z,4.2
2023-02-24T02:14:00.827Z,4.2
2023-02-24T02:15:00.780Z,4.2
2023-02-24T02:16:00.736Z,4.2
2023-02-24T02:17:00.681Z,4.2
2023-02-24T02:18:00.685Z,4.2
2023-02-24T02:19:00.754Z,4.1
2023-02-24T02:20:00.688Z,4.1
2023-02-24T02:21:00.697Z,4.1
2023-02-24T02:22:00.702Z,4.1
2023-02-24T02:23:00.726Z,4.1
2023-02-24T02:24:00.722Z,4.1
2023-02-24T02:25:00.758Z,4
2023-02-24T02:26:00.698Z,4
2023-02-24T02:27:00.711Z,4
2023-02-24T02:28:00.719Z,4
2023-02-24T02:29:00.707Z,3.9
2023-02-24T02:30:00.708Z,3.9
2023-02-24T02:31:00.792Z,3.9
2023-02-24T02:32:00.865Z,3.9
2023-02-24T02:33:00.717Z,3.9
2023-02-24T02:34:00.720Z,3.9
2023-02-24T02:35:00.716Z,3.9
2023-02-24T02:36:00.819Z,3.9
2023-02-24T02:37:00.731Z,3.9
2023-02-24T02:38:00.708Z,3.9
2023-02-24T02:39:00.724Z,3.9
2023-02-24T02:40:00.730Z,3.9
2023-02-24T02:41:00.715Z,3.9
2023-02-24T02:42:00.726Z,3.9
2023-02-24T02:43:00.717Z,3.9
2023-02-24T02:44:00.747Z,3.9
2023-02-24T02:45:00.705Z,3.8
2023-02-24T02:46:00.746Z,3.8
2023-02-24T02:47:00.743Z,3.7
2023-02-24T02:48:00.740Z,3.7
2023-02-24T02:49:00.782Z,3.6
2023-02-24T02:50:00.723Z,3.6
2023-02-24T02:51:00.750Z,3.6
2023-02-24T02:52:00.757Z,3.5
2023-02-24T02:53:00.719Z,3.5
2023-02-24T02:54:00.732Z,3.4
2023-02-24T02:55:00.754Z,3.4
2023-02-24T02:56:00.735Z,3.4
2023-02-24T02:57:00.731Z,3.5
2023-02-24T02:58:00.719Z,3.5
2023-02-24T02:59:00.754Z,3.6
2023-02-24T03:00:00.774Z,3.6
2023-02-24T03:01:01.556Z,3.6
2023-02-24T03:02:01.459Z,3.6
2023-02-24T03:03:01.443Z,3.6
2023-02-24T03:04:01.448Z,3.6
2023-02-24T03:05:01.573Z,3.6
2023-02-24T03:06:01.453Z,3.7
2023-02-24T03:07:01.426Z,3.7
2023-02-24T03:08:01.433Z,3.7
2023-02-24T03:09:01.465Z,3.7
2023-02-24T03:10:01.634Z,3.7
2023-02-24T03:11:01.475Z,3.7
2023-02-24T03:12:01.442Z,3.8
2023-02-24T03:13:01.432Z,3.8
2023-02-24T03:14:01.461Z,3.8
2023-02-24T03:15:01.453Z,3.8
2023-02-24T03:16:01.456Z,3.8
2023-02-24T03:17:01.442Z,3.8
2023-02-24T03:18:01.452Z,3.8
2023-02-24T03:19:01.459Z,3.8
2023-02-24T03:20:01.490Z,3.8
2023-02-24T03:21:01.460Z,3.8
2023-02-24T03:22:01.453Z,3.8
2023-02-24T03:23:01.445Z,3.8
2023-02-24T03:24:01.481Z,3.8
2023-02-24T03:25:01.473Z,3.8
2023-02-24T03:26:01.497Z,3.8
2023-02-24T03:27:01.467Z,3.8
2023-02-24T03:28:01.449Z,3.8
2023-02-24T03:29:01.491Z,3.7
2023-02-24T03:30:01.514Z,3.7
2023-02-24T03:31:01.545Z,3.7
2023-02-24T03:32:01.578Z,3.7
2023-02-24T03:33:01.490Z,3.6
2023-02-24T03:34:01.503Z,3.6
2023-02-24T03:35:01.463Z,3.6
2023-02-24T03:36:01.485Z,3.6
2023-02-24T03:37:01.457Z,3.6
2023-02-24T03:38:01.490Z,3.6
2023-02-24T03:39:01.483Z,3.6
2023-02-24T03:40:01.542Z,3.6
2023-02-24T03:41:01.506Z,3.5
2023-02-24T03:42:01.467Z,3.5
2023-02-24T03:43:01.503Z,3.5
2023-02-24T03:44:01.482Z,3.5
2023-02-24T03:45:01.488Z,3.5
2023-02-24T03:46:01.538Z,3.5
2023-02-24T03:47:01.495Z,3.5
2023-02-24T03:48:01.494Z,3.4
2023-02-24T03:49:01.490Z,3.4
2023-02-24T03:50:01.521Z,3.4
2023-02-24T03:51:01.478Z,3.4
2023-02-24T03:52:01.472Z,3.4
2023-02-24T03:53:01.549Z,3.4
2023-02-24T03:54:01.490Z,3.4
2023-02-24T03:55:01.476Z,3.4
2023-02-24T03:56:01.493Z,3.4
2023-02-24T03:57:01.499Z,3.5
2023-02-24T03:58:01.497Z,3.5
2023-02-24T03:59:01.503Z,3.5
2023-02-24T04:00:01.662Z,3.5
2023-02-24T04:01:01.521Z,3.5
2023-02-24T04:02:01.525Z,3.5
2023-02-24T04:03:01.509Z,3.5
2023-02-24T04:04:01.547Z,3.5
2023-02-24T04:05:01.585Z,3.5
2023-02-24T04:06:01.526Z,3.5
2023-02-24T04:07:01.483Z,3.5
2023-02-24T04:08:01.508Z,3.5
2023-02-24T04:09:01.509Z,3.5
2023-02-24T04:10:01.564Z,3.5
2023-02-24T04:11:01.523Z,3.5
2023-02-24T04:12:01.498Z,3.5
2023-02-24T04:13:01.518Z,3.5
2023-02-24T04:14:01.500Z,3.6
2023-02-24T04:15:01.517Z,3.6
2023-02-24T04:16:01.624Z,3.6
2023-02-24T04:17:01.495Z,3.6
2023-02-24T04:18:01.519Z,3.6
2023-02-24T04:19:01.509Z,3.6
2023-02-24T04:20:01.530Z,3.6
2023-02-24T04:21:01.530Z,3.6
2023-02-24T04:22:01.509Z,3.6
2023-02-24T04:23:01.532Z,3.6
2023-02-24T04:24:01.511Z,3.6
2023-02-24T04:25:01.550Z,3.5
2023-02-24T04:26:01.532Z,3.5
2023-02-24T04:27:01.532Z,3.5
2023-02-24T04:28:01.544Z,3.5
2023-02-24T04:29:01.522Z,3.5
2023-02-24T04:30:01.585Z,3.5
2023-02-24T04:31:01.614Z,3.5
2023-02-24T04:32:01.722Z,3.4
2023-02-24T04:33:01.524Z,3.4
2023-02-24T04:34:01.548Z,3.4
2023-02-24T04:35:01.514Z,3.4
2023-02-24T04:36:01.541Z,3.4
2023-02-24T04:37:01.526Z,3.4
2023-02-24T04:38:01.543Z,3.4
2023-02-24T04:39:01.528Z,3.4
2023-02-24T04:40:01.554Z,3.4
2023-02-24T04:41:01.559Z,3.4
2023-02-24T04:42:01.584Z,3.4
2023-02-24T04:43:01.557Z,3.4
2023-02-24T04:44:01.546Z,3.4
2023-02-24T04:45:01.544Z,3.4
2023-02-24T04:46:01.601Z,3.4
2023-02-24T04:47:01.535Z,3.4
2023-02-24T04:48:01.545Z,3.4
2023-02-24T04:49:01.544Z,3.4
2023-02-24T04:50:01.561Z,3.3
2023-02-24T04:51:01.566Z,3.3
2023-02-24T04:52:01.543Z,3.3
2023-02-24T04:53:01.577Z,3.3
2023-02-24T04:54:01.560Z,3.2
2023-02-24T04:55:01.578Z,3.2
2023-02-24T04:56:01.571Z,3.2
2023-02-24T04:57:01.546Z,3.2
2023-02-24T04:58:01.540Z,3.2
2023-02-24T04:59:01.555Z,3.2
2023-02-24T05:00:01.706Z,3.2
2023-02-24T05:01:01.570Z,3.1
2023-02-24T05:02:01.718Z,3.1
2023-02-24T05:03:01.579Z,3.1
2023-02-24T05:04:01.657Z,3.1
2023-02-24T05:05:01.608Z,3
2023-02-24T05:06:01.647Z,3
2023-02-24T05:07:01.565Z,2.9
2023-02-24T05:08:01.609Z,2.9
2023-02-24T05:09:01.614Z,2.9
2023-02-24T05:10:01.635Z,2.9
2023-02-24T05:11:01.593Z,2.8
2023-02-24T05:12:01.603Z,2.8
2023-02-24T05:13:02.590Z,2.8
2023-02-24T05:14:01.576Z,2.8
2023-02-24T05:15:00.596Z,2.8
2023-02-24T05:16:00.667Z,2.8
2023-02-24T05:17:00.746Z,2.8
2023-02-24T05:18:00.578Z,2.8
2023-02-24T05:19:00.578Z,2.8
2023-02-24T05:20:00.721Z,2.8
2023-02-24T05:21:01.880Z,2.8
2023-02-24T05:22:00.588Z,2.8
2023-02-24T05:23:00.596Z,2.8
2023-02-24T05:24:00.582Z,2.8
2023-02-24T05:25:00.587Z,2.9
2023-02-24T05:26:00.575Z,2.9
2023-02-24T05:27:00.635Z,2.9
2023-02-24T05:28:00.576Z,2.9
2023-02-24T05:29:00.618Z,2.9
2023-02-24T05:30:00.787Z,2.9
2023-02-24T05:31:00.753Z,2.9
2023-02-24T05:32:00.807Z,2.9
2023-02-24T05:33:00.589Z,2.9
2023-02-24T05:34:00.614Z,2.9
2023-02-24T05:35:00.601Z,2.9
2023-02-24T05:36:00.611Z,2.9
2023-02-24T05:37:00.599Z,2.9
2023-02-24T05:38:00.605Z,2.9
2023-02-24T05:39:00.604Z,2.9
2023-02-24T05:40:00.643Z,2.9
2023-02-24T05:41:00.633Z,2.9
2023-02-24T05:42:00.616Z,2.9
2023-02-24T05:43:00.638Z,2.9
2023-02-24T05:44:00.602Z,2.9
2023-02-24T05:45:00.585Z,2.9
2023-02-24T05:46:00.771Z,2.9
2023-02-24T05:47:00.849Z,2.9
2023-02-24T05:48:00.601Z,2.9
2023-02-24T05:49:00.682Z,2.8
2023-02-24T05:50:00.696Z,2.8
2023-02-24T05:51:00.692Z,2.8
2023-02-24T05:52:00.600Z,2.8
2023-02-24T05:53:00.739Z,2.8
2023-02-24T05:54:00.746Z,2.7
2023-02-24T05:55:00.704Z,2.7
2023-02-24T05:56:00.703Z,2.7
2023-02-24T05:57:00.625Z,2.7
2023-02-24T05:58:00.709Z,2.6
2023-02-24T05:59:00.617Z,2.6
2023-02-24T06:00:00.919Z,2.6
2023-02-24T06:01:00.619Z,2.6
2023-02-24T06:02:00.731Z,2.6
2023-02-24T06:03:00.723Z,2.6
2023-02-24T06:04:00.707Z,2.6
2023-02-24T06:05:00.772Z,2.6
2023-02-24T06:06:01.698Z,2.5
2023-02-24T06:07:00.779Z,2.5
2023-02-24T06:08:00.749Z,2.5
2023-02-24T06:09:00.771Z,2.5
2023-02-24T06:10:02.558Z,2.5
2023-02-24T06:11:00.728Z,2.4
2023-02-24T06:12:00.832Z,2.4
2023-02-24T06:13:00.751Z,2.4
2023-02-24T06:14:00.766Z,2.4
2023-02-24T06:15:00.813Z,2.4
2023-02-24T06:16:00.736Z,2.4
2023-02-24T06:17:00.842Z,2.4
2023-02-24T06:18:00.766Z,2.3
2023-02-24T06:19:00.659Z,2.3
2023-02-24T06:20:00.928Z,2.3
2023-02-24T06:21:00.802Z,2.3
2023-02-24T06:22:00.784Z,2.3
2023-02-24T06:23:00.774Z,2.3
2023-02-24T06:24:00.687Z,2.2
2023-02-24T06:25:00.741Z,2.2
2023-02-24T06:26:00.775Z,2.2
2023-02-24T06:27:00.837Z,2.2
2023-02-24T06:28:00.872Z,2.1
2023-02-24T06:29:00.792Z,2.1
2023-02-24T06:30:00.912Z,2.1
2023-02-24T06:31:00.849Z,2.1
2023-02-24T06:32:00.986Z,2.1
2023-02-24T06:33:00.822Z,2
2023-02-24T06:34:00.681Z,2
2023-02-24T06:35:00.789Z,2
2023-02-24T06:36:00.779Z,2
2023-02-24T06:37:00.740Z,2.1
2023-02-24T06:38:00.760Z,2.1
2023-02-24T06:39:00.862Z,2.1
2023-02-24T06:40:00.914Z,2.1
2023-02-24T06:41:01.795Z,2.1
2023-02-24T06:42:00.850Z,2.1
2023-02-24T06:43:00.756Z,2.1
2023-02-24T06:44:00.874Z,2.2
2023-02-24T06:45:00.970Z,2.2
2023-02-24T06:46:00.781Z,2.2
2023-02-24T06:47:00.765Z,2.1
2023-02-24T06:48:00.805Z,2.1
2023-02-24T06:49:00.728Z,2.1
2023-02-24T06:50:00.930Z,2.1
2023-02-24T06:51:00.857Z,2.1
2023-02-24T06:52:00.785Z,2.1
2023-02-24T06:53:01.093Z,2.2
2023-02-24T06:54:00.746Z,2.2
2023-02-24T06:55:00.876Z,2.2
2023-02-24T06:56:00.795Z,2.2
2023-02-24T06:57:00.674Z,2.2
2023-02-24T06:58:00.670Z,2.2
2023-02-24T06:59:00.823Z,2.2
2023-02-24T07:00:00.794Z,2.2
2023-02-24T07:01:00.928Z,2.3
2023-02-24T07:02:00.903Z,2.2
2023-02-24T07:03:00.679Z,2.3
2023-02-24T07:04:00.939Z,2.3
2023-02-24T07:05:00.829Z,2.3
2023-02-24T07:06:00.794Z,2.3
2023-02-24T07:07:00.849Z,2.4
2023-02-24T07:08:00.853Z,2.4
2023-02-24T07:09:00.755Z,2.4
2023-02-24T07:10:00.898Z,2.4
2023-02-24T07:11:00.739Z,2.4
2023-02-24T07:12:00.813Z,2.5
2023-02-24T07:13:00.762Z,2.5
2023-02-24T07:14:00.810Z,2.6
2023-02-24T07:15:00.814Z,2.6
2023-02-24T07:16:00.744Z,2.6
2023-02-24T07:17:00.868Z,2.6
2023-02-24T07:18:00.774Z,2.6
2023-02-24T07:19:00.691Z,2.6
2023-02-24T07:20:00.721Z,2.7
2023-02-24T07:21:00.701Z,2.7
2023-02-24T07:22:00.706Z,2.8
2023-02-24T07:23:00.710Z,2.8
2023-02-24T07:24:00.711Z,2.8
2023-02-24T07:25:00.885Z,2.8
2023-02-24T07:26:00.718Z,2.9
2023-02-24T07:27:00.693Z,2.9
2023-02-24T07:28:00.724Z,3
2023-02-24T07:29:00.746Z,3
2023-02-24T07:30:00.734Z,3.1
2023-02-24T07:31:00.843Z,3.1
2023-02-24T07:32:00.990Z,3.1
2023-02-24T07:33:00.751Z,3.2
2023-02-24T07:34:00.735Z,3.2
2023-02-24T07:35:00.718Z,3.2
2023-02-24T07:36:00.705Z,3.3
2023-02-24T07:37:00.699Z,3.3
2023-02-24T07:38:00.718Z,3.4
2023-02-24T07:39:00.705Z,3.4
2023-02-24T07:40:00.744Z,3.4
2023-02-24T07:41:00.714Z,3.5
2023-02-24T07:42:00.702Z,3.6
2023-02-24T07:43:00.724Z,3.6
2023-02-24T07:44:00.702Z,3.7
2023-02-24T07:45:00.773Z,3.7
2023-02-24T07:46:00.763Z,3.8
2023-02-24T07:47:00.734Z,3.8
2023-02-24T07:48:01.438Z,3.9
2023-02-24T07:49:00.721Z,3.9
2023-02-24T07:50:00.729Z,4
2023-02-24T07:51:00.737Z,4.1
2023-02-24T07:52:00.722Z,4.1
2023-02-24T07:53:00.723Z,4.2
2023-02-24T07:54:00.715Z,4.3
2023-02-24T07:55:00.744Z,4.4
2023-02-24T07:56:00.711Z,4.4
2023-02-24T07:57:00.721Z,4.6
2023-02-24T07:58:00.749Z,4.7
2023-02-24T07:59:00.750Z,4.8
2023-02-24T08:00:00.742Z,4.8
2023-02-24T08:01:00.743Z,4.9
2023-02-24T08:02:00.754Z,5
2023-02-24T08:03:00.753Z,5.1
2023-02-24T08:04:00.735Z,5.1
2023-02-24T08:05:00.740Z,5.2
2023-02-24T08:06:00.737Z,5.2
2023-02-24T08:07:01.334Z,5.3
2023-02-24T08:08:00.738Z,5.4
2023-02-24T08:09:00.749Z,5.4
2023-02-24T08:10:00.724Z,5.5
2023-02-24T08:11:00.724Z,5.6
2023-02-24T08:12:00.744Z,5.6
2023-02-24T08:13:00.756Z,5.7
2023-02-24T08:14:00.743Z,5.7
2023-02-24T08:15:00.747Z,5.8
2023-02-24T08:16:00.801Z,5.8
2023-02-24T08:17:00.750Z,5.9
2023-02-24T08:18:00.749Z,6
2023-02-24T08:19:00.749Z,6
2023-02-24T08:20:00.741Z,6.1
2023-02-24T08:21:00.748Z,6.2
2023-02-24T08:22:00.762Z,6.2
2023-02-24T08:23:00.842Z,6.3
2023-02-24T08:24:00.763Z,6.4
2023-02-24T08:25:01.154Z,6.4
2023-02-24T08:26:00.780Z,6.5
2023-02-24T08:27:00.763Z,6.6
2023-02-24T08:28:07.969Z,6.6
2023-02-24T08:29:00.762Z,6.6
2023-02-24T08:30:00.782Z,6.7
2023-02-24T08:31:00.846Z,6.8
2023-02-24T08:32:00.962Z,6.9
2023-02-24T08:33:00.772Z,6.9
2023-02-24T08:34:00.755Z,7
2023-02-24T08:35:00.787Z,7
2023-02-24T08:36:01.706Z,7.1
2023-02-24T08:37:00.760Z,7.1
2023-02-24T08:38:00.821Z,7.2
2023-02-24T08:39:01.277Z,7.2
2023-02-24T08:40:01.372Z,7.2
2023-02-24T08:41:00.995Z,7.3
2023-02-24T08:42:00.775Z,7.4
2023-02-24T08:43:00.796Z,7.4
2023-02-24T08:44:00.767Z,7.5
2023-02-24T08:45:00.802Z,7.6
2023-02-24T08:46:00.787Z,7.6
2023-02-24T08:47:00.856Z,7.6
2023-02-24T08:48:00.830Z,7.7
2023-02-24T08:49:00.968Z,7.8
2023-02-24T08:50:00.791Z,7.8
2023-02-24T08:51:00.785Z,7.8
2023-02-24T08:52:00.778Z,7.9
2023-02-24T08:53:00.792Z,7.9
2023-02-24T08:54:00.819Z,8
2023-02-24T08:55:00.795Z,8.1
2023-02-24T08:56:00.807Z,8.1
2023-02-24T08:57:00.785Z,8.1
2023-02-24T08:58:00.791Z,8.2
2023-02-24T08:59:00.793Z,8.2
2023-02-24T09:00:00.825Z,8.2
2023-02-24T09:01:00.931Z,8.3
2023-02-24T09:02:04.671Z,8.4
2023-02-24T09:03:00.784Z,8.4
2023-02-24T09:04:00.803Z,8.5
2023-02-24T09:05:00.874Z,8.5
2023-02-24T09:06:01.283Z,8.6
2023-02-24T09:07:11.338Z,8.6
2023-02-24T09:08:00.793Z,8.5
2023-02-24T09:09:00.797Z,8.6
2023-02-24T09:10:00.822Z,8.6
2023-02-24T09:11:00.837Z,8.6
2023-02-24T09:12:00.797Z,8.6
2023-02-24T09:13:00.813Z,8.6
2023-02-24T09:14:00.820Z,8.7
2023-02-24T09:15:00.825Z,8.8
2023-02-24T09:16:00.890Z,8.8
2023-02-24T09:17:00.810Z,8.9
2023-02-24T09:18:00.814Z,8.9
2023-02-24T09:19:00.821Z,8.9
2023-02-24T09:20:02.395Z,8.9
2023-02-24T09:21:00.807Z,8.9
2023-02-24T09:22:01.841Z,9
2023-02-24T09:23:00.849Z,9
2023-02-24T09:24:00.827Z,9.1
2023-02-24T09:25:00.842Z,9.1
2023-02-24T09:26:00.901Z,9.1
2023-02-24T09:27:00.826Z,9.2
2023-02-24T09:28:00.829Z,9.2
2023-02-24T09:29:00.831Z,9.2
2023-02-24T09:30:00.833Z,9.2
2023-02-24T09:31:00.926Z,9.2
2023-02-24T09:32:00.962Z,9.2
2023-02-24T09:33:01.583Z,9.2
2023-02-24T09:34:01.406Z,9.2
2023-02-24T09:35:00.829Z,9.2
2023-02-24T09:36:00.835Z,9.2
2023-02-24T09:37:00.846Z,9.2
2023-02-24T09:38:00.863Z,9.3
2023-02-24T09:39:01.097Z,9.3
2023-02-24T09:40:00.839Z,9.4
2023-02-24T09:41:07.411Z,9.4
2023-02-24T09:42:00.834Z,9.5
2023-02-24T09:43:01.273Z,9.6
2023-02-24T09:44:00.857Z,9.7
2023-02-24T09:45:00.847Z,9.7
2023-02-24T09:46:00.994Z,9.8
2023-02-24T09:47:00.847Z,9.9
2023-02-24T09:48:00.866Z,10
2023-02-24T09:49:00.849Z,10.1
2023-02-24T09:50:00.833Z,10.1
2023-02-24T09:51:03.890Z,10.1
2023-02-24T09:52:00.945Z,10.1
2023-02-24T09:53:10.788Z,10.1
2023-02-24T09:54:00.842Z,10.2
2023-02-24T09:55:00.858Z,10.2
2023-02-24T09:56:00.865Z,10.2
2023-02-24T09:57:00.851Z,10.2
2023-02-24T09:58:00.880Z,10.2
2023-02-24T09:59:00.870Z,10.2
2023-02-24T10:00:00.922Z,10.2
2023-02-24T10:01:00.954Z,10.2
2023-02-24T10:02:00.913Z,10.2
2023-02-24T10:03:00.857Z,10.2
2023-02-24T10:04:02.405Z,10.2
2023-02-24T10:05:00.842Z,10.2
2023-02-24T10:06:00.854Z,10.1
2023-02-24T10:07:01.022Z,10.1
2023-02-24T10:08:00.884Z,10.1
2023-02-24T10:09:00.863Z,10
2023-02-24T10:10:00.851Z,9.9
2023-02-24T10:11:01.084Z,9.9
2023-02-24T10:12:00.862Z,9.9
2023-02-24T10:13:01.377Z,9.9
2023-02-24T10:14:03.801Z,9.8
2023-02-24T10:15:00.931Z,9.8
2023-02-24T10:16:06.249Z,9.8
2023-02-24T10:17:01.674Z,9.8
2023-02-24T10:18:00.889Z,9.8
2023-02-24T10:19:00.924Z,9.8
2023-02-24T10:20:00.879Z,9.9
2023-02-24T10:21:00.950Z,9.9
2023-02-24T10:22:00.892Z,10
2023-02-24T10:23:00.897Z,10
2023-02-24T10:24:00.878Z,10.1
2023-02-24T10:25:00.881Z,10.1
2023-02-24T10:26:06.770Z,10.2
2023-02-24T10:27:07.979Z,10.2
2023-02-24T10:28:00.920Z,10.3
2023-02-24T10:29:00.909Z,10.4
2023-02-24T10:30:00.932Z,10.4
2023-02-24T10:31:00.965Z,10.4
2023-02-24T10:32:01.305Z,10.4
2023-02-24T10:33:01.210Z,10.4
2023-02-24T10:34:01.012Z,10.5
2023-02-24T10:35:00.958Z,10.6
2023-02-24T10:36:01.030Z,10.6
2023-02-24T10:37:00.947Z,10.6
2023-02-24T10:38:00.902Z,10.6
2023-02-24T10:39:01.409Z,10.6
2023-02-24T10:40:00.898Z,10.6
2023-02-24T10:41:00.952Z,10.6
2023-02-24T10:42:00.997Z,10.7
2023-02-24T10:43:00.910Z,10.7
2023-02-24T10:44:01.021Z,10.8
2023-02-24T10:45:02.517Z,10.8
2023-02-24T10:46:01.068Z,10.8
2023-02-24T10:47:01.045Z,10.8
2023-02-24T10:48:01.080Z,10.8
2023-02-24T10:49:01.087Z,10.8
2023-02-24T10:50:01.034Z,10.7
2023-02-24T10:51:01.045Z,10.6
2023-02-24T10:52:01.126Z,10.6
2023-02-24T10:53:01.033Z,10.6
2023-02-24T10:54:00.928Z,10.6
2023-02-24T10:55:00.910Z,10.7
2023-02-24T10:56:00.978Z,10.8
2023-02-24T10:57:01.076Z,10.8
2023-02-24T10:58:01.060Z,10.9
2023-02-24T10:59:01.857Z,11
2023-02-24T11:00:01.040Z,11.1
2023-02-24T11:01:01.185Z,11.1
2023-02-24T11:02:01.573Z,11.2
2023-02-24T11:03:01.962Z,11.2
2023-02-24T11:04:01.355Z,11.3
2023-02-24T11:05:02.373Z,11.4
2023-02-24T11:06:01.494Z,11.4
2023-02-24T11:07:01.091Z,11.4
2023-02-24T11:08:00.956Z,11.4
2023-02-24T11:09:00.934Z,11.4
2023-02-24T11:10:01.104Z,11.4
2023-02-24T11:11:01.085Z,11.4
2023-02-24T11:12:01.493Z,11.3
2023-02-24T11:13:09.251Z,11.2
2023-02-24T11:14:01.066Z,11.2
2023-02-24T11:15:01.068Z,11.1
2023-02-24T11:16:01.141Z,11.1
2023-02-24T11:17:01.050Z,11.1
2023-02-24T11:18:01.037Z,11.1
2023-02-24T11:19:00.943Z,11.1
2023-02-24T11:20:01.630Z,10.9
2023-02-24T11:21:00.995Z,10.9
2023-02-24T11:22:00.882Z,10.9
2023-02-24T11:23:01.127Z,10.9
2023-02-24T11:24:00.944Z,10.9
2023-02-24T11:25:01.876Z,10.9
2023-02-24T11:26:00.786Z,10.8
2023-02-24T11:27:02.892Z,10.8
2023-02-24T11:28:00.755Z,10.8
2023-02-24T11:29:00.672Z,10.7
2023-02-24T11:30:00.613Z,10.7
2023-02-24T11:31:00.753Z,10.7
2023-02-24T11:32:00.810Z,10.6
2023-02-24T11:33:00.716Z,10.6
2023-02-24T11:34:00.533Z,10.6
2023-02-24T11:35:00.616Z,10.6
2023-02-24T11:36:00.638Z,10.6
2023-02-24T11:37:00.549Z,10.6
2023-02-24T11:38:00.548Z,10.7
2023-02-24T11:39:15.267Z,10.6
2023-02-24T11:40:00.555Z,10.6
2023-02-24T11:41:00.537Z,10.7
2023-02-24T11:42:00.548Z,10.7
2023-02-24T11:43:00.517Z,10.7
2023-02-24T11:44:00.523Z,10.7
2023-02-24T11:45:00.547Z,10.8
2023-02-24T11:46:00.671Z,10.8
2023-02-24T11:47:00.523Z,10.8
2023-02-24T11:48:00.556Z,10.8
2023-02-24T11:49:00.571Z,10.9
2023-02-24T11:50:00.546Z,10.9
2023-02-24T11:51:00.532Z,11.1
2023-02-24T11:52:00.536Z,11.1
2023-02-24T11:53:00.544Z,11.2
2023-02-24T11:54:00.616Z,11.2
2023-02-24T11:55:00.596Z,11.2
2023-02-24T11:56:00.565Z,11.4
2023-02-24T11:57:00.586Z,11.4
2023-02-24T11:58:00.550Z,11.4
2023-02-24T11:59:00.546Z,11.5
2023-02-24T12:00:00.557Z,11.6
2023-02-24T12:01:00.569Z,11.6
2023-02-24T12:02:00.540Z,11.7
2023-02-24T12:03:02.295Z,11.8
2023-02-24T12:04:00.564Z,11.8
2023-02-24T12:05:00.572Z,11.9
2023-02-24T12:06:00.626Z,11.9
2023-02-24T12:07:00.554Z,12
2023-02-24T12:08:00.555Z,12
2023-02-24T12:09:00.561Z,12.1
2023-02-24T12:10:15.658Z,12.1
2023-02-24T12:11:00.592Z,12.2
2023-02-24T12:12:00.631Z,12.2
2023-02-24T12:13:00.578Z,12.2
2023-02-24T12:14:00.574Z,12.3
2023-02-24T12:15:00.589Z,12.3
2023-02-24T12:16:00.641Z,12.4
2023-02-24T12:17:00.824Z,12.4
2023-02-24T12:18:00.571Z,12.5
2023-02-24T12:19:00.557Z,12.6
2023-02-24T12:20:00.620Z,12.6
2023-02-24T12:21:00.573Z,12.6
2023-02-24T12:22:00.559Z,12.5
2023-02-24T12:23:00.566Z,12.6
2023-02-24T12:24:00.864Z,12.6
2023-02-24T12:25:00.600Z,12.6
2023-02-24T12:26:01.194Z,12.6
2023-02-24T12:27:01.055Z,12.6
2023-02-24T12:28:01.004Z,12.6
2023-02-24T12:29:00.586Z,12.6
2023-02-24T12:30:00.665Z,12.6
2023-02-24T12:31:01.062Z,12.6
2023-02-24T12:32:01.263Z,12.6
2023-02-24T12:33:01.113Z,12.6
2023-02-24T12:34:01.052Z,12.6
2023-02-24T12:35:01.132Z,12.6
2023-02-24T12:36:00.575Z,12.5
2023-02-24T12:37:00.585Z,12.6
2023-02-24T12:38:00.591Z,12.6
2023-02-24T12:39:01.019Z,12.5
2023-02-24T12:40:00.619Z,12.4
2023-02-24T12:41:01.112Z,12.4
2023-02-24T12:42:00.990Z,12.4
2023-02-24T12:43:00.584Z,12.4
2023-02-24T12:44:00.610Z,12.4
2023-02-24T12:45:01.191Z,12.4
2023-02-24T12:46:00.652Z,12.4
2023-02-24T12:47:00.591Z,12.5
2023-02-24T12:48:00.608Z,12.6
2023-02-24T12:49:01.159Z,12.7
2023-02-24T12:50:01.129Z,12.7
2023-02-24T12:51:01.008Z,12.7
2023-02-24T12:52:00.592Z,12.8
2023-02-24T12:53:01.007Z,12.8
2023-02-24T12:54:00.645Z,12.8
2023-02-24T12:55:00.616Z,12.8
2023-02-24T12:56:00.602Z,12.8
2023-02-24T12:57:00.594Z,12.9
2023-02-24T12:58:00.607Z,12.9
2023-02-24T12:59:00.677Z,12.9
2023-02-24T13:00:00.779Z,13.1
2023-02-24T13:01:00.645Z,13.2
2023-02-24T13:02:00.698Z,13.2
2023-02-24T13:03:00.612Z,13.2
2023-02-24T13:04:00.611Z,13.3
2023-02-24T13:05:00.640Z,13.4
2023-02-24T13:06:00.606Z,13.4
2023-02-24T13:07:00.616Z,13.6
2023-02-24T13:08:00.605Z,13.6
2023-02-24T13:09:00.647Z,13.6
2023-02-24T13:10:00.742Z,13.7
2023-02-24T13:11:00.642Z,13.8
2023-02-24T13:12:00.623Z,13.8
2023-02-24T13:13:00.617Z,13.8
2023-02-24T13:14:00.612Z,13.8
2023-02-24T13:15:00.661Z,13.8
2023-02-24T13:16:00.620Z,13.8
2023-02-24T13:17:00.670Z,13.7
2023-02-24T13:18:00.616Z,13.8
2023-02-24T13:19:00.624Z,13.8
2023-02-24T13:20:00.667Z,13.8
2023-02-24T13:21:00.616Z,13.8
2023-02-24T13:22:00.621Z,13.8
2023-02-24T13:23:00.644Z,13.9
2023-02-24T13:24:00.656Z,14
2023-02-24T13:25:00.659Z,14.1
2023-02-24T13:26:00.621Z,14.1
2023-02-24T13:27:00.643Z,14.2
2023-02-24T13:28:00.644Z,14.3
2023-02-24T13:29:00.650Z,14.3
2023-02-24T13:30:00.784Z,14.4
2023-02-24T13:31:00.693Z,14.5
2023-02-24T13:32:00.761Z,14.5
2023-02-24T13:33:00.650Z,14.4
2023-02-24T13:34:00.645Z,14.4
2023-02-24T13:35:00.634Z,14.4
2023-02-24T13:36:00.639Z,14.4
2023-02-24T13:37:00.634Z,14.4
2023-02-24T13:38:00.664Z,14.3
2023-02-24T13:39:00.661Z,14.3
2023-02-24T13:40:00.688Z,14.2